createdAt,value
2023-03-23T00:03:12.641Z,54.57
2023-03-23T00:07:12.493Z,54.96
2023-03-23T00:11:12.499Z,54.17
2023-03-23T00:15:12.417Z,55.89
2023-03-23T00:19:12.405Z,55.28
2023-03-23T00:23:12.337Z,54.88
2023-03-23T00:27:12.294Z,53.90
2023-03-23T00:31:12.269Z,54.66
2023-03-23T00:35:12.239Z,52.77
2023-03-23T00:39:12.413Z,53.72
2023-03-23T00:43:12.386Z,54.38
2023-03-23T00:47:12.350Z,49.74
2023-03-23T00:51:12.322Z,54.82
2023-03-23T00:55:12.276Z,51.78
2023-03-23T00:59:12.789Z,54.02
2023-03-23T01:03:12.211Z,52.09
2023-03-23T01:07:12.798Z,51.60
2023-03-23T01:11:12.292Z,50.41
2023-03-23T01:15:12.061Z,49.49
2023-03-23T01:19:12.043Z,52.32
2023-03-23T01:23:12.207Z,54.78
2023-03-23T01:27:12.385Z,49.12
2023-03-23T01:31:14.562Z,49.31
2023-03-23T01:35:12.533Z,51.01
2023-03-23T01:39:12.763Z,52.53
2023-03-23T01:43:12.695Z,53.02
2023-03-23T01:47:12.650Z,51.59
2023-03-23T01:51:12.627Z,51.55
2023-03-23T01:55:12.604Z,51.32
2023-03-23T01:59:12.533Z,50.25
2023-03-23T02:03:12.499Z,51.28
2023-03-23T02:07:12.538Z,49.99
2023-03-23T02:11:12.442Z,52.52
2023-03-23T02:15:13.397Z,48.20
2023-03-23T02:19:12.376Z,47.78
2023-03-23T02:23:12.356Z,47.80
2023-03-23T02:27:12.437Z,49.30
2023-03-23T02:31:12.615Z,48.02
2023-03-23T02:35:12.683Z,45.88
2023-03-23T02:39:12.806Z,48.34
2023-03-23T02:43:12.880Z,49.55
2023-03-23T02:47:12.977Z,47.96
2023-03-23T02:51:12.990Z,46.92
2023-03-23T02:55:12.953Z,47.39
2023-03-23T02:59:12.923Z,44.12
2023-03-23T03:03:12.941Z,45.44
2023-03-23T03:07:12.928Z,47.86
2023-03-23T03:11:12.887Z,43.13
2023-03-23T03:15:13.015Z,44.37
2023-03-23T03:19:13.240Z,43.09
2023-03-23T03:23:13.368Z,45.35
2023-03-23T03:27:13.518Z,43.21
2023-03-23T03:31:13.686Z,45.48
2023-03-23T03:35:13.858Z,44.27
2023-03-23T03:39:13.982Z,45.17
2023-03-23T03:43:14.153Z,43.06
2023-03-23T03:47:14.330Z,40.38
2023-03-23T03:51:14.461Z,42.45
2023-03-23T03:55:14.588Z,38.89
2023-03-23T03:59:22.183Z,40.97
2023-03-23T04:03:15.862Z,42.37
2023-03-23T04:07:14.568Z,40.59
2023-03-23T04:11:32.680Z,40.04
2023-03-23T04:15:15.515Z,41.65
2023-03-23T04:19:14.482Z,39.43
2023-03-23T04:23:14.453Z,38.42
2023-03-23T04:27:14.400Z,42.21
2023-03-23T04:31:14.436Z,39.84
2023-03-23T04:35:14.553Z,39.17
2023-03-23T04:39:14.446Z,38.37
2023-03-23T04:43:14.461Z,40.24
2023-03-23T04:47:14.479Z,39.41
2023-03-23T04:51:14.460Z,37.00
2023-03-23T04:55:14.477Z,38.55
2023-03-23T04:59:14.534Z,37.13
2023-03-23T05:03:14.490Z,39.39
2023-03-23T05:07:14.492Z,34.36
2023-03-23T05:11:14.520Z,39.81
2023-03-23T05:15:14.520Z,35.57
2023-03-23T05:19:14.490Z,33.94
2023-03-23T05:23:14.573Z,34.78
2023-03-23T05:27:14.497Z,32.56
2023-03-23T05:31:14.638Z,32.06
2023-03-23T05:35:14.570Z,37.78
2023-03-23T05:39:14.487Z,40.86
2023-03-23T05:43:14.528Z,40.28
2023-03-23T05:47:14.439Z,43.32
2023-03-23T05:51:14.408Z,42.33
2023-03-23T05:55:14.324Z,40.84
2023-03-23T05:59:14.297Z,39.58
2023-03-23T06:03:14.269Z,37.35
2023-03-23T06:07:14.260Z,35.40
2023-03-23T06:11:14.210Z,35.59
2023-03-23T06:15:14.140Z,37.73
2023-03-23T06:19:14.169Z,36.54
2023-03-23T06:23:14.078Z,29.31
2023-03-23T06:35:52.237Z,25.00
2023-03-23T06:40:06.381Z,29.76
2023-03-23T06:43:52.595Z,36.69
2023-03-23T06:47:58.413Z,40.74
2023-03-23T07:09:06.550Z,25.00
2023-03-23T07:13:06.427Z,30.16
2023-03-23T07:17:07.510Z,53.75
2023-03-23T07:21:06.265Z,46.30
2023-03-23T07:42:12.865Z,25.00
2023-03-23T07:46:02.320Z,25.00
2023-03-23T07:50:14.443Z,25.53
2023-03-23T07:54:21.187Z,25.00
2023-03-23T07:58:21.030Z,29.58
2023-03-23T08:02:22.332Z,37.24
2023-03-23T08:06:21.789Z,43.36
2023-03-23T08:10:20.773Z,39.93
2023-03-23T08:14:21.942Z,25.68
2023-03-23T08:18:20.794Z,32.55
2023-03-23T08:22:21.672Z,25.78
2023-03-23T08:26:32.422Z,36.87
2023-03-23T08:30:21.206Z,29.25
2023-03-23T08:34:21.359Z,22.61
2023-03-23T08:38:28.391Z,38.50
2023-03-23T08:42:20.718Z,34.33
2023-03-23T08:46:20.695Z,29.47
2023-03-23T08:50:27.066Z,25.26
2023-03-23T08:58:39.550Z,25.00
2023-03-23T09:07:06.979Z,25.00
2023-03-23T09:19:37.324Z,25.00
2023-03-23T09:23:44.468Z,25.00
2023-03-23T09:27:35.829Z,25.00
2023-03-23T09:35:57.041Z,25.00
2023-03-23T09:44:17.751Z,25.00
2023-03-23T09:48:19.051Z,25.00
2023-03-23T09:52:12.341Z,25.00
2023-03-23T09:56:13.654Z,40.25
2023-03-23T10:00:16.165Z,49.54
2023-03-23T10:08:31.660Z,25.00
2023-03-23T10:12:31.264Z,23.50
2023-03-23T10:16:35.168Z,29.54
2023-03-23T10:20:30.829Z,36.43
2023-03-23T10:28:49.915Z,25.00
2023-03-23T10:32:49.642Z,193.09
2023-03-23T10:36:54.828Z,82.87
2023-03-23T10:40:49.684Z,72.60
2023-03-23T10:44:50.627Z,80.78
2023-03-23T10:48:54.195Z,94.72
2023-03-23T10:52:55.686Z,92.40
2023-03-23T10:56:59.687Z,92.13
2023-03-23T11:00:50.973Z,98.37
2023-03-23T11:04:50.036Z,100.22
2023-03-23T11:08:50.376Z,101.49
2023-03-23T11:12:52.123Z,102.16
2023-03-23T11:16:50.888Z,104.10
2023-03-23T11:20:53.547Z,96.57
2023-03-23T11:24:51.134Z,96.55
2023-03-23T11:28:49.862Z,107.63
2023-03-23T11:32:52.913Z,72.20
2023-03-23T11:36:52.678Z,65.08
2023-03-23T11:40:50.109Z,57.97
2023-03-23T11:44:52.011Z,56.14
2023-03-23T11:57:09.460Z,28.62
2023-03-23T12:05:27.003Z,25.00
2023-03-23T12:09:37.579Z,40.24
2023-03-23T12:13:49.829Z,25.00
2023-03-23T12:22:04.352Z,25.00
2023-03-23T12:26:04.108Z,25.53
2023-03-23T12:30:04.451Z,27.14
2023-03-23T12:34:04.159Z,25.00
2023-03-23T12:38:04.030Z,25.88
2023-03-23T12:42:04.376Z,26.02
2023-03-23T12:46:04.036Z,28.55
2023-03-23T12:50:04.010Z,27.22
2023-03-23T12:54:03.876Z,26.96
2023-03-23T12:58:03.963Z,29.68
2023-03-23T13:02:03.819Z,29.21
2023-03-23T13:06:03.798Z,29.23
2023-03-23T13:10:05.299Z,25.93
2023-03-23T13:14:03.888Z,27.56
2023-03-23T13:18:05.967Z,30.28
2023-03-23T13:22:03.992Z,31.05
2023-03-23T13:26:04.485Z,26.77
2023-03-23T13:30:04.891Z,28.63
2023-03-23T13:34:04.420Z,26.15
2023-03-23T13:38:04.409Z,28.07
2023-03-23T13:42:04.579Z,27.55
2023-03-23T13:46:04.589Z,26.44
2023-03-23T13:50:04.978Z,28.32
2023-03-23T13:54:04.929Z,28.20
2023-03-23T13:58:04.976Z,29.16
2023-03-23T14:02:05.971Z,25.00
2023-03-23T14:06:05.327Z,28.29
2023-03-23T14:10:05.912Z,26.08
2023-03-23T14:14:05.677Z,27.40
2023-03-23T14:18:05.848Z,28.65
2023-03-23T14:22:06.185Z,26.67
2023-03-23T14:26:06.460Z,25.31
2023-03-23T14:30:06.941Z,29.92
2023-03-23T14:34:06.657Z,31.17
2023-03-23T14:38:06.882Z,29.64
2023-03-23T14:42:06.864Z,29.60
2023-03-23T14:46:06.830Z,27.72
2023-03-23T14:50:06.767Z,28.81
2023-03-23T14:54:07.252Z,29.77
2023-03-23T14:58:06.798Z,28.85
2023-03-23T15:02:07.011Z,28.50
2023-03-23T15:06:07.594Z,25.72
2023-03-23T15:10:06.673Z,28.18
2023-03-23T15:14:06.687Z,29.36
2023-03-23T15:18:06.634Z,26.63
2023-03-23T15:22:06.535Z,28.37
2023-03-23T15:26:06.514Z,32.35
2023-03-23T15:30:06.495Z,30.25
2023-03-23T15:34:06.463Z,31.28
2023-03-23T15:38:06.382Z,29.04
2023-03-23T15:42:06.354Z,28.46
2023-03-23T15:46:06.289Z,26.08
2023-03-23T15:50:06.661Z,31.48
2023-03-23T15:54:12.440Z,26.00
2023-03-23T15:58:07.169Z,29.00
2023-03-23T16:02:06.139Z,33.91
2023-03-23T16:06:06.118Z,40.70
2023-03-23T16:10:06.122Z,35.08
2023-03-23T16:14:06.499Z,32.80
2023-03-23T16:18:07.552Z,35.44
2023-03-23T16:22:06.536Z,29.85
2023-03-23T16:26:06.777Z,32.38
2023-03-23T16:30:06.948Z,36.11
2023-03-23T16:34:07.025Z,29.06
2023-03-23T16:38:09.231Z,29.34
2023-03-23T16:42:07.390Z,30.98
2023-03-23T16:46:07.655Z,36.02
2023-03-23T16:50:07.845Z,33.45
2023-03-23T16:54:08.033Z,31.06
2023-03-23T17:02:08.099Z,34.74
2023-03-23T17:06:08.036Z,25.00
2023-03-23T17:10:08.005Z,35.06
2023-03-23T17:14:07.969Z,32.60
2023-03-23T17:18:07.969Z,33.19
2023-03-23T17:22:07.928Z,28.14
2023-03-23T17:26:07.891Z,28.97
2023-03-23T17:30:08.205Z,33.18
2023-03-23T17:34:07.782Z,33.28
2023-03-23T17:38:07.809Z,33.92
2023-03-23T17:42:08.002Z,32.89
2023-03-23T17:46:08.158Z,35.48
2023-03-23T17:50:11.191Z,30.13
2023-03-23T17:54:08.313Z,24.91
2023-03-23T17:58:08.278Z,34.44
2023-03-23T18:02:08.296Z,32.63
2023-03-23T18:06:08.251Z,35.81
2023-03-23T18:10:08.140Z,33.87
2023-03-23T18:14:08.223Z,34.60
2023-03-23T18:18:08.571Z,33.11
2023-03-23T18:22:08.800Z,30.88
2023-03-23T18:26:08.765Z,27.67
2023-03-23T18:30:08.839Z,32.46
2023-03-23T18:34:08.790Z,32.81
2023-03-23T18:38:08.882Z,32.27
2023-03-23T18:42:08.746Z,33.39
2023-03-23T18:46:08.845Z,30.42
2023-03-23T18:50:08.743Z,31.35
2023-03-23T18:54:08.763Z,29.49
2023-03-23T18:58:08.732Z,30.31
2023-03-23T19:02:08.771Z,26.45
2023-03-23T19:06:08.778Z,27.01
2023-03-23T19:10:08.776Z,25.90
2023-03-23T19:14:08.780Z,29.01
2023-03-23T19:18:08.782Z,29.06
2023-03-23T19:22:08.921Z,27.85
2023-03-23T19:26:08.810Z,27.90
2023-03-23T19:30:08.838Z,28.42
2023-03-23T19:34:08.921Z,29.35
2023-03-23T19:38:08.924Z,29.46
2023-03-23T19:42:08.956Z,27.11
2023-03-23T19:46:09.071Z,30.12
2023-03-23T19:50:09.094Z,26.18
2023-03-23T19:54:09.224Z,28.21
2023-03-23T19:58:09.484Z,26.87
2023-03-23T20:02:09.437Z,25.97
2023-03-23T20:06:09.347Z,25.00
2023-03-23T20:10:09.419Z,26.52
2023-03-23T20:14:09.492Z,27.06
2023-03-23T20:18:09.802Z,26.49
2023-03-23T20:22:09.711Z,27.72
2023-03-23T20:26:09.777Z,28.19
2023-03-23T20:30:09.878Z,29.07
2023-03-23T20:34:09.967Z,26.86
2023-03-23T20:38:10.096Z,26.70
2023-03-23T20:42:10.210Z,26.29
2023-03-23T20:46:10.340Z,31.18
2023-03-23T20:50:10.454Z,29.42
2023-03-23T20:54:10.593Z,27.08
2023-03-23T20:58:10.719Z,28.40
2023-03-23T21:02:10.784Z,29.07
2023-03-23T21:06:10.977Z,27.82
2023-03-23T21:10:11.035Z,30.45
2023-03-23T21:14:11.215Z,28.96
2023-03-23T21:18:11.344Z,31.58
2023-03-23T21:22:11.419Z,30.87
2023-03-23T21:26:11.635Z,29.77
2023-03-23T21:30:12.077Z,31.50
2023-03-23T21:34:11.889Z,30.03
2023-03-23T21:38:12.162Z,30.22
2023-03-23T21:42:12.161Z,26.92
2023-03-23T21:46:12.320Z,27.41
2023-03-23T21:50:12.400Z,26.55
2023-03-23T21:54:12.647Z,31.54
2023-03-23T21:58:12.835Z,27.37
2023-03-23T22:02:12.843Z,30.49
2023-03-23T22:06:12.916Z,29.77
2023-03-23T22:10:13.079Z,30.03
2023-03-23T22:14:13.444Z,29.84
2023-03-23T22:18:13.500Z,29.16
2023-03-23T22:22:13.493Z,29.67
2023-03-23T22:26:13.570Z,30.06
2023-03-23T22:30:13.686Z,29.80
2023-03-23T22:34:13.848Z,27.81
2023-03-23T22:38:13.993Z,28.99
2023-03-23T22:42:14.074Z,28.03
2023-03-23T22:46:14.270Z,28.80
2023-03-23T22:50:14.368Z,30.77
2023-03-23T22:54:14.527Z,31.31
2023-03-23T22:58:14.608Z,29.96
2023-03-23T23:02:14.815Z,29.56
2023-03-23T23:06:14.856Z,31.05
2023-03-23T23:10:15.665Z,30.41
2023-03-23T23:14:15.105Z,30.79
2023-03-23T23:18:15.282Z,30.91
2023-03-23T23:22:19.326Z,34.40
2023-03-23T23:26:15.438Z,32.71
2023-03-23T23:30:15.390Z,31.39
2023-03-23T23:34:15.275Z,30.75
2023-03-23T23:38:15.248Z,33.24
2023-03-23T23:42:16.139Z,31.92
2023-03-23T23:46:15.224Z,31.27
2023-03-23T23:50:15.659Z,32.67
2023-03-23T23:54:15.344Z,31.53
2023-03-23T23:58:15.475Z,32.91
